sensor_id;sensor_type;location;lat;lon;timestamp;pressure;altitude;pressure_sealevel;temperature;humidity
62710;BME280;48770;51.624;5.886;2024-03-07T00:01:57;102414.06;;;19.62;44.92
62710;BME280;48770;51.624;5.886;2024-03-07T00:04:22;102406.25;;;19.64;44.91
62710;BME280;48770;51.624;5.886;2024-03-07T00:06:47;102413.75;;;19.64;44.93
62710;BME280;48770;51.624;5.886;2024-03-07T00:09:13;102413.44;;;19.65;44.76
62710;BME280;48770;51.624;5.886;2024-03-07T00:11:40;102410.16;;;19.63;44.85
62710;BME280;48770;51.624;5.886;2024-03-07T00:14:06;102420.44;;;19.63;44.64
62710;BME280;48770;51.624;5.886;2024-03-07T00:16:31;102413.25;;;19.62;45.05
62710;BME280;48770;51.624;5.886;2024-03-07T00:18:58;102415.50;;;19.60;44.96
62710;BME280;48770;51.624;5.886;2024-03-07T00:21:24;102422.69;;;19.61;44.78
62710;BME280;48770;51.624;5.886;2024-03-07T00:23:49;102419.63;;;19.62;44.78
62710;BME280;48770;51.624;5.886;2024-03-07T00:26:14;102414.88;;;19.63;44.94
62710;BME280;48770;51.624;5.886;2024-03-07T00:28:40;102414.88;;;19.63;44.88
62710;BME280;48770;51.624;5.886;2024-03-07T00:31:05;102419.94;;;19.61;44.93
62710;BME280;48770;51.624;5.886;2024-03-07T00:33:32;102421.34;;;19.58;44.80
62710;BME280;48770;51.624;5.886;2024-03-07T00:35:58;102418.28;;;19.60;44.93
62710;BME280;48770;51.624;5.886;2024-03-07T00:38:23;102413.25;;;19.62;44.73
62710;BME280;48770;51.624;5.886;2024-03-07T00:40:48;102418.78;;;19.62;44.86
62710;BME280;48770;51.624;5.886;2024-03-07T00:43:14;102414.69;;;19.59;44.88
62710;BME280;48770;51.624;5.886;2024-03-07T00:45:40;102407.50;;;19.58;44.76
62710;BME280;48770;51.624;5.886;2024-03-07T00:48:05;102412.56;;;19.51;44.88
62710;BME280;48770;51.624;5.886;2024-03-07T00:50:30;102407.28;;;19.55;44.95
62710;BME280;48770;51.624;5.886;2024-03-07T00:52:57;102406.66;;;19.58;44.80
62710;BME280;48770;51.624;5.886;2024-03-07T00:55:22;102408.00;;;19.60;44.71
62710;BME280;48770;51.624;5.886;2024-03-07T00:57:48;102407.19;;;19.60;44.72
62710;BME280;48770;51.624;5.886;2024-03-07T01:00:13;102399.97;;;19.59;44.73
62710;BME280;48770;51.624;5.886;2024-03-07T01:02:42;102405.31;;;19.55;44.95
62710;BME280;48770;51.624;5.886;2024-03-07T01:05:11;102404.50;;;19.55;44.99
62710;BME280;48770;51.624;5.886;2024-03-07T01:07:38;102397.81;;;19.56;44.76
62710;BME280;48770;51.624;5.886;2024-03-07T01:10:04;102395.56;;;19.58;44.82
62710;BME280;48770;51.624;5.886;2024-03-07T01:12:31;102401.13;;;19.58;44.75
62710;BME280;48770;51.624;5.886;2024-03-07T01:14:56;102401.13;;;19.58;44.89
62710;BME280;48770;51.624;5.886;2024-03-07T01:17:26;102400.09;;;19.54;44.83
62710;BME280;48770;51.624;5.886;2024-03-07T01:19:51;102402.84;;;19.54;44.82
62710;BME280;48770;51.624;5.886;2024-03-07T01:22:16;102393.09;;;19.56;44.73
62710;BME280;48770;51.624;5.886;2024-03-07T01:24:42;102392.28;;;19.56;44.68
62710;BME280;48770;51.624;5.886;2024-03-07T01:27:08;102397.00;;;19.55;44.75
62710;BME280;48770;51.624;5.886;2024-03-07T01:29:34;102385.09;;;19.55;44.75
62710;BME280;48770;51.624;5.886;2024-03-07T01:31:59;102381.50;;;19.54;44.56
62710;BME280;48770;51.624;5.886;2024-03-07T01:34:25;102384.78;;;19.56;44.53
62710;BME280;48770;51.624;5.886;2024-03-07T01:36:50;102382.81;;;19.57;44.77
62710;BME280;48770;51.624;5.886;2024-03-07T01:39:15;102377.59;;;19.55;44.84
62710;BME280;48770;51.624;5.886;2024-03-07T01:41:41;102373.97;;;19.55;44.56
62710;BME280;48770;51.624;5.886;2024-03-07T01:44:06;102377.28;;;19.57;44.73
62710;BME280;48770;51.624;5.886;2024-03-07T01:46:32;102384.25;;;19.54;44.75
62710;BME280;48770;51.624;5.886;2024-03-07T01:48:58;102376.75;;;19.55;44.67
62710;BME280;48770;51.624;5.886;2024-03-07T01:51:24;102379.53;;;19.55;44.47
62710;BME280;48770;51.624;5.886;2024-03-07T01:53:51;102373.97;;;19.55;44.72
62710;BME280;48770;51.624;5.886;2024-03-07T01:56:17;102369.56;;;19.54;44.58
62710;BME280;48770;51.624;5.886;2024-03-07T01:58:45;102374.28;;;19.53;44.63
62710;BME280;48770;51.624;5.886;2024-03-07T02:01:11;102368.16;;;19.51;44.63
62710;BME280;48770;51.624;5.886;2024-03-07T02:03:39;102366.25;;;19.52;44.64
62710;BME280;48770;51.624;5.886;2024-03-07T02:06:05;102362.34;;;19.53;44.68
62710;BME280;48770;51.624;5.886;2024-03-07T02:08:30;102361.53;;;19.52;44.71
62710;BME280;48770;51.624;5.886;2024-03-07T02:10:57;102363.19;;;19.53;44.69
62710;BME280;48770;51.624;5.886;2024-03-07T02:13:22;102359.56;;;19.53;44.71
62710;BME280;48770;51.624;5.886;2024-03-07T02:15:48;102359.03;;;19.51;44.51
62710;BME280;48770;51.624;5.886;2024-03-07T02:18:13;102357.94;;;19.52;44.54
62710;BME280;48770;51.624;5.886;2024-03-07T02:20:43;102364.28;;;19.52;44.71
62710;BME280;48770;51.624;5.886;2024-03-07T02:23:09;102354.59;;;19.50;44.48
62710;BME280;48770;51.624;5.886;2024-03-07T02:25:34;102352.38;;;19.52;44.69
62710;BME280;48770;51.624;5.886;2024-03-07T02:28:05;102357.06;;;19.51;44.34
62710;BME280;48770;51.624;5.886;2024-03-07T02:30:31;102359.34;;;19.49;44.53
62710;BME280;48770;51.624;5.886;2024-03-07T02:32:59;102354.59;;;19.50;44.50
62710;BME280;48770;51.624;5.886;2024-03-07T02:35:32;102351.84;;;19.50;44.34
62710;BME280;48770;51.624;5.886;2024-03-07T02:37:58;102345.78;;;19.48;44.62
62710;BME280;48770;51.624;5.886;2024-03-07T02:40:24;102348.22;;;19.49;44.32
62710;BME280;48770;51.624;5.886;2024-03-07T02:42:49;102341.03;;;19.48;44.55
62710;BME280;48770;51.624;5.886;2024-03-07T02:45:14;102345.47;;;19.49;44.47
62710;BME280;48770;51.624;5.886;2024-03-07T02:47:40;102341.03;;;19.48;44.42
62710;BME280;48770;51.624;5.886;2024-03-07T02:50:08;102337.13;;;19.49;44.35
62710;BME280;48770;51.624;5.886;2024-03-07T02:52:34;102337.75;;;19.46;44.63
62710;BME280;48770;51.624;5.886;2024-03-07T02:54:59;102341.34;;;19.47;44.59
62710;BME280;48770;51.624;5.886;2024-03-07T02:57:25;102340.22;;;19.48;44.61
62710;BME280;48770;51.624;5.886;2024-03-07T02:59:50;102337.44;;;19.48;44.60
62710;BME280;48770;51.624;5.886;2024-03-07T03:02:15;102335.81;;;19.47;44.39
62710;BME280;48770;51.624;5.886;2024-03-07T03:04:40;102342.47;;;19.46;44.26
62710;BME280;48770;51.624;5.886;2024-03-07T03:07:06;102336.13;;;19.45;44.34
62710;BME280;48770;51.624;5.886;2024-03-07T03:09:32;102333.34;;;19.45;44.48
62710;BME280;48770;51.624;5.886;2024-03-07T03:11:59;102339.19;;;19.44;44.41
62710;BME280;48770;51.624;5.886;2024-03-07T03:14:24;102332.00;;;19.42;44.56
62710;BME280;48770;51.624;5.886;2024-03-07T03:16:49;102324.50;;;19.43;44.42
62710;BME280;48770;51.624;5.886;2024-03-07T03:19:15;102328.59;;;19.46;44.56
62710;BME280;48770;51.624;5.886;2024-03-07T03:21:40;102317.00;;;19.44;44.51
62710;BME280;48770;51.624;5.886;2024-03-07T03:24:06;102318.97;;;19.43;44.43
62710;BME280;48770;51.624;5.886;2024-03-07T03:26:32;102318.13;;;19.42;44.30
62710;BME280;48770;51.624;5.886;2024-03-07T03:28:58;102321.72;;;19.43;44.54
62710;BME280;48770;51.624;5.886;2024-03-07T03:31:23;102317.81;;;19.44;44.35
62710;BME280;48770;51.624;5.886;2024-03-07T03:33:49;102314.22;;;19.44;44.23
62710;BME280;48770;51.624;5.886;2024-03-07T03:36:16;102308.69;;;19.44;44.51
62710;BME280;48770;51.624;5.886;2024-03-07T03:38:41;102312.59;;;19.42;44.39
62710;BME280;48770;51.624;5.886;2024-03-07T03:41:06;102313.19;;;19.39;44.44
62710;BME280;48770;51.624;5.886;2024-03-07T03:43:32;102312.06;;;19.40;44.31
62710;BME280;48770;51.624;5.886;2024-03-07T03:45:57;102311.75;;;19.42;44.38
62710;BME280;48770;51.624;5.886;2024-03-07T03:48:22;102312.59;;;19.42;44.30
62710;BME280;48770;51.624;5.886;2024-03-07T03:50:47;102309.00;;;19.42;44.19
62710;BME280;48770;51.624;5.886;2024-03-07T03:53:13;102311.25;;;19.40;44.29
62710;BME280;48770;51.624;5.886;2024-03-07T03:55:38;102304.88;;;19.39;44.20
62710;BME280;48770;51.624;5.886;2024-03-07T03:58:04;102314.94;;;19.35;44.40
62710;BME280;48770;51.624;5.886;2024-03-07T04:00:30;102308.28;;;19.36;44.37
62710;BME280;48770;51.624;5.886;2024-03-07T04:02:56;102311.56;;;19.38;44.32
62710;BME280;48770;51.624;5.886;2024-03-07T04:05:21;102312.69;;;19.37;44.21
62710;BME280;48770;51.624;5.886;2024-03-07T04:07:47;102304.38;;;19.37;44.51
62710;BME280;48770;51.624;5.886;2024-03-07T04:10:15;102310.22;;;19.36;44.33
62710;BME280;48770;51.624;5.886;2024-03-07T04:12:41;102308.38;;;19.31;44.55
62710;BME280;48770;51.624;5.886;2024-03-07T04:15:14;102308.59;;;19.35;44.45
62710;BME280;48770;51.624;5.886;2024-03-07T04:17:42;102299.94;;;19.36;44.41
62710;BME280;48770;51.624;5.886;2024-03-07T04:20:08;102291.63;;;19.36;44.18
62710;BME280;48770;51.624;5.886;2024-03-07T04:22:35;102294.41;;;19.36;44.41
62710;BME280;48770;51.624;5.886;2024-03-07T04:25:04;102298.09;;;19.32;44.37
62710;BME280;48770;51.624;5.886;2024-03-07T04:27:32;102295.63;;;19.30;44.45
62710;BME280;48770;51.624;5.886;2024-03-07T04:29:58;102298.94;;;19.32;44.41
62710;BME280;48770;51.624;5.886;2024-03-07T04:32:23;102299.44;;;19.34;44.49
62710;BME280;48770;51.624;5.886;2024-03-07T04:34:48;102296.66;;;19.34;44.40
62710;BME280;48770;51.624;5.886;2024-03-07T04:37:14;102295.34;;;19.32;44.18
62710;BME280;48770;51.624;5.886;2024-03-07T04:39:39;102292.34;;;19.28;44.45
62710;BME280;48770;51.624;5.886;2024-03-07T04:42:06;102299.53;;;19.29;44.42
62710;BME280;48770;51.624;5.886;2024-03-07T04:44:33;102298.41;;;19.30;44.41
62710;BME280;48770;51.624;5.886;2024-03-07T04:47:00;102290.28;;;19.34;44.22
62710;BME280;48770;51.624;5.886;2024-03-07T04:49:30;102288.97;;;19.31;44.34
62710;BME280;48770;51.624;5.886;2024-03-07T04:51:57;102294.81;;;19.30;44.38
62710;BME280;48770;51.624;5.886;2024-03-07T04:54:24;102299.34;;;19.26;44.35
62710;BME280;48770;51.624;5.886;2024-03-07T04:56:51;102304.88;;;19.26;44.47
62710;BME280;48770;51.624;5.886;2024-03-07T04:59:17;102294.00;;;19.29;44.31
62710;BME280;48770;51.624;5.886;2024-03-07T05:01:44;102290.09;;;19.30;44.16
62710;BME280;48770;51.624;5.886;2024-03-07T05:04:11;102297.28;;;19.31;44.39
62710;BME280;48770;51.624;5.886;2024-03-07T05:06:37;102300.66;;;19.28;44.24
62710;BME280;48770;51.624;5.886;2024-03-07T05:09:03;102296.00;;;19.24;44.38
62710;BME280;48770;51.624;5.886;2024-03-07T05:11:29;102297.66;;;19.25;44.26
62710;BME280;48770;51.624;5.886;2024-03-07T05:13:55;102299.34;;;19.26;44.44
62710;BME280;48770;51.624;5.886;2024-03-07T05:16:21;102300.66;;;19.28;44.16
62710;BME280;48770;51.624;5.886;2024-03-07T05:18:46;102307.84;;;19.29;43.98
62710;BME280;48770;51.624;5.886;2024-03-07T05:21:12;102306.53;;;19.27;44.26
62710;BME280;48770;51.624;5.886;2024-03-07T05:23:56;102304.66;;;19.22;44.48
62710;BME280;48770;51.624;5.886;2024-03-07T05:26:23;102307.09;;;19.24;44.40
62710;BME280;48770;51.624;5.886;2024-03-07T05:28:51;102302.09;;;19.26;44.18
62710;BME280;48770;51.624;5.886;2024-03-07T05:31:17;102305.69;;;19.26;44.04
62710;BME280;48770;51.624;5.886;2024-03-07T05:33:43;102302.09;;;19.26;44.21
62710;BME280;48770;51.624;5.886;2024-03-07T05:36:09;102299.91;;;19.23;44.38
62710;BME280;48770;51.624;5.886;2024-03-07T05:38:41;102300.75;;;19.23;44.43
62710;BME280;48770;51.624;5.886;2024-03-07T05:41:11;102304.34;;;19.24;44.35
62710;BME280;48770;51.624;5.886;2024-03-07T05:43:40;102299.63;;;19.24;44.29
62710;BME280;48770;51.624;5.886;2024-03-07T05:46:06;102305.69;;;19.26;44.19
62710;BME280;48770;51.624;5.886;2024-03-07T05:48:33;102300.75;;;19.23;44.26
62710;BME280;48770;51.624;5.886;2024-03-07T05:50:59;102304.66;;;19.22;44.30
62710;BME280;48770;51.624;5.886;2024-03-07T05:53:25;102298.88;;;19.19;44.19
62710;BME280;48770;51.624;5.886;2024-03-07T05:55:50;102295.00;;;19.20;44.27
62710;BME280;48770;51.624;5.886;2024-03-07T05:58:15;102294.69;;;19.21;44.21
62710;BME280;48770;51.624;5.886;2024-03-07T06:00:44;102297.97;;;19.23;44.18
62710;BME280;48770;51.624;5.886;2024-03-07T06:03:17;102303.81;;;19.22;44.22
62710;BME280;48770;51.624;5.886;2024-03-07T06:05:45;102303.63;;;19.18;44.34
62710;BME280;48770;51.624;5.886;2024-03-07T06:08:14;102297.25;;;19.18;44.18
62710;BME280;48770;51.624;5.886;2024-03-07T06:10:41;102298.06;;;19.18;44.21
62710;BME280;48770;51.624;5.886;2024-03-07T06:13:06;102304.66;;;19.22;44.15
62710;BME280;48770;51.624;5.886;2024-03-07T06:15:32;102298.28;;;19.22;44.00
62710;BME280;48770;51.624;5.886;2024-03-07T06:17:57;102306.91;;;19.20;44.07
62710;BME280;48770;51.624;5.886;2024-03-07T06:20:22;102303.09;;;19.16;44.37
62710;BME280;48770;51.624;5.886;2024-03-07T06:22:48;102303.41;;;19.15;44.23
62710;BME280;48770;51.624;5.886;2024-03-07T06:25:20;102301.47;;;19.15;44.17
62710;BME280;48770;51.624;5.886;2024-03-07T06:27:58;102303.31;;;19.20;44.41
62710;BME280;48770;51.624;5.886;2024-03-07T06:30:24;102304.94;;;19.21;44.23
62710;BME280;48770;51.624;5.886;2024-03-07T06:32:51;102308.03;;;19.19;44.01
62710;BME280;48770;51.624;5.886;2024-03-07T06:35:16;102297.56;;;19.16;44.11
62710;BME280;48770;51.624;5.886;2024-03-07T06:37:41;102293.13;;;19.15;43.98
62710;BME280;48770;51.624;5.886;2024-03-07T06:40:07;102299.19;;;19.17;44.22
62710;BME280;48770;51.624;5.886;2024-03-07T06:42:35;102304.44;;;19.19;44.07
62710;BME280;48770;51.624;5.886;2024-03-07T06:45:03;102301.66;;;19.19;44.08
62710;BME280;48770;51.624;5.886;2024-03-07T06:47:28;102295.59;;;19.17;43.84
62710;BME280;48770;51.624;5.886;2024-03-07T06:49:53;102300.94;;;19.13;44.13
62710;BME280;48770;51.624;5.886;2024-03-07T06:52:21;102289.03;;;19.13;44.17
62710;BME280;48770;51.624;5.886;2024-03-07T06:54:46;102298.69;;;19.15;43.94
62710;BME280;48770;51.624;5.886;2024-03-07T06:57:11;102300.34;;;19.16;44.18
62710;BME280;48770;51.624;5.886;2024-03-07T06:59:37;102296.72;;;19.16;44.24
62710;BME280;48770;51.624;5.886;2024-03-07T07:02:02;102306.50;;;19.13;44.15
62710;BME280;48770;51.624;5.886;2024-03-07T07:04:28;102306.28;;;19.09;44.36
62710;BME280;48770;51.624;5.886;2024-03-07T07:07:08;102301.75;;;19.14;44.05
62710;BME280;48770;51.624;5.886;2024-03-07T07:09:37;102299.50;;;19.16;43.73
62710;BME280;48770;51.624;5.886;2024-03-07T07:12:02;102304.75;;;19.17;43.84
62710;BME280;48770;51.624;5.886;2024-03-07T07:14:28;102295.09;;;19.15;43.88
62710;BME280;48770;51.624;5.886;2024-03-07T07:16:54;102300.94;;;19.13;44.11
62710;BME280;48770;51.624;5.886;2024-03-07T07:19:19;102300.72;;;19.09;44.30
62710;BME280;48770;51.624;5.886;2024-03-07T07:21:44;102301.56;;;19.10;44.19
62710;BME280;48770;51.624;5.886;2024-03-07T07:24:10;102288.22;;;19.12;44.08
62710;BME280;48770;51.624;5.886;2024-03-07T07:26:36;102296.22;;;19.14;43.88
62710;BME280;48770;51.624;5.886;2024-03-07T07:29:01;102295.91;;;19.15;44.06
62710;BME280;48770;51.624;5.886;2024-03-07T07:31:29;102288.63;;;19.05;44.10
62710;BME280;48770;51.624;5.886;2024-03-07T07:33:54;102283.16;;;19.00;44.25
62710;BME280;48770;51.624;5.886;2024-03-07T07:36:20;102281.72;;;19.03;44.20
62710;BME280;48770;51.624;5.886;2024-03-07T07:38:45;102288.81;;;19.09;44.17
62710;BME280;48770;51.624;5.886;2024-03-07T07:41:10;102284.09;;;19.09;44.09
62710;BME280;48770;51.624;5.886;2024-03-07T07:43:35;102285.44;;;19.12;44.05
62710;BME280;48770;51.624;5.886;2024-03-07T07:46:01;102287.47;;;19.06;44.18
62710;BME280;48770;51.624;5.886;2024-03-07T07:48:27;102290.88;;;19.03;44.27
62710;BME280;48770;51.624;5.886;2024-03-07T07:50:52;102286.75;;;19.01;44.11
62710;BME280;48770;51.624;5.886;2024-03-07T07:53:17;102282.25;;;19.05;44.03
62710;BME280;48770;51.624;5.886;2024-03-07T07:55:42;102288.81;;;19.09;44.08
62710;BME280;48770;51.624;5.886;2024-03-07T07:58:08;102285.22;;;19.08;43.89
62710;BME280;48770;51.624;5.886;2024-03-07T08:00:33;102292.81;;;19.03;43.99
62710;BME280;48770;51.624;5.886;2024-03-07T08:03:03;102290.66;;;19.00;44.49
62710;BME280;48770;51.624;5.886;2024-03-07T08:05:30;102290.88;;;19.03;44.13
62710;BME280;48770;51.624;5.886;2024-03-07T08:07:59;102290.78;;;19.08;44.21
62710;BME280;48770;51.624;5.886;2024-03-07T08:10:27;102292.94;;;19.12;44.11
62710;BME280;48770;51.624;5.886;2024-03-07T08:13:00;102294.88;;;19.11;43.98
62710;BME280;48770;51.624;5.886;2024-03-07T08:15:27;102288.09;;;19.03;44.18
62710;BME280;48770;51.624;5.886;2024-03-07T08:17:53;102292.00;;;19.02;44.30
62710;BME280;48770;51.624;5.886;2024-03-07T08:20:20;102292.31;;;19.01;44.28
62710;BME280;48770;51.624;5.886;2024-03-07T08:22:48;102288.63;;;19.05;44.18
62710;BME280;48770;51.624;5.886;2024-03-07T08:25:16;102286.66;;;19.06;44.16
62710;BME280;48770;51.624;5.886;2024-03-07T08:27:44;102286.75;;;19.01;44.34
62710;BME280;48770;51.624;5.886;2024-03-07T08:30:11;102281.81;;;18.98;44.22
62710;BME280;48770;51.624;5.886;2024-03-07T08:32:41;102275.44;;;18.97;43.16
62710;BME280;48770;51.624;5.886;2024-03-07T08:35:08;102272.75;;;18.92;42.37
62710;BME280;48770;51.624;5.886;2024-03-07T08:37:47;102277.28;;;18.88;42.38
62710;BME280;48770;51.624;5.886;2024-03-07T08:40:19;102277.56;;;18.87;41.79
62710;BME280;48770;51.624;5.886;2024-03-07T08:42:46;102282.91;;;18.83;41.99
62710;BME280;48770;51.624;5.886;2024-03-07T08:45:11;102278.50;;;18.82;41.75
62710;BME280;48770;51.624;5.886;2024-03-07T08:47:42;102274.38;;;18.79;41.02
62710;BME280;48770;51.624;5.886;2024-03-07T08:50:08;102280.75;;;18.80;41.35
62710;BME280;48770;51.624;5.886;2024-03-07T08:52:34;102276.13;;;18.75;40.74
62710;BME280;48770;51.624;5.886;2024-03-07T08:55:02;102273.03;;;18.77;40.95
62710;BME280;48770;51.624;5.886;2024-03-07T08:57:28;102273.03;;;18.77;40.60
62710;BME280;48770;51.624;5.886;2024-03-07T08:59:53;102267.81;;;18.75;40.61
62710;BME280;48770;51.624;5.886;2024-03-07T09:02:18;102268.94;;;18.74;40.04
62710;BME280;48770;51.624;5.886;2024-03-07T09:04:43;102257.31;;;18.72;39.84
62710;BME280;48770;51.624;5.886;2024-03-07T09:07:09;102260.91;;;18.73;39.76
62710;BME280;48770;51.624;5.886;2024-03-07T09:09:34;102257.31;;;18.72;38.77
62710;BME280;48770;51.624;5.886;2024-03-07T09:12:00;102262.03;;;18.72;39.43
62710;BME280;48770;51.624;5.886;2024-03-07T09:14:29;102262.63;;;18.69;38.54
62710;BME280;48770;51.624;5.886;2024-03-07T09:16:55;102251.84;;;18.67;39.01
62710;BME280;48770;51.624;5.886;2024-03-07T09:19:21;102253.50;;;18.68;38.51
62710;BME280;48770;51.624;5.886;2024-03-07T09:21:50;102256.88;;;18.65;37.93
62710;BME280;48770;51.624;5.886;2024-03-07T09:24:16;102259.97;;;18.64;38.15
62710;BME280;48770;51.624;5.886;2024-03-07T09:26:41;102258.00;;;18.64;38.37
62710;BME280;48770;51.624;5.886;2024-03-07T09:29:07;102251.94;;;18.62;38.19
62710;BME280;48770;51.624;5.886;2024-03-07T09:31:32;102246.41;;;18.62;38.18
62710;BME280;48770;51.624;5.886;2024-03-07T09:33:58;102250.28;;;18.61;38.21
62710;BME280;48770;51.624;5.886;2024-03-07T09:36:24;102251.94;;;18.62;37.44
62710;BME280;48770;51.624;5.886;2024-03-07T09:38:50;102238.69;;;18.59;37.93
62710;BME280;48770;51.624;5.886;2024-03-07T09:41:15;102236.53;;;18.56;37.77
62710;BME280;48770;51.624;5.886;2024-03-07T09:43:43;102237.44;;;18.52;37.81
62710;BME280;48770;51.624;5.886;2024-03-07T09:46:09;102236.53;;;18.56;37.49
62710;BME280;48770;51.624;5.886;2024-03-07T09:48:35;102249.03;;;18.54;37.49
62710;BME280;48770;51.624;5.886;2024-03-07T09:51:02;102241.53;;;18.54;37.36
62710;BME280;48770;51.624;5.886;2024-03-07T09:53:29;102243.50;;;18.54;36.98
62710;BME280;48770;51.624;5.886;2024-03-07T09:55:55;102248.72;;;18.55;37.29
62710;BME280;48770;51.624;5.886;2024-03-07T09:58:22;102242.66;;;18.53;37.49
62710;BME280;48770;51.624;5.886;2024-03-07T10:00:49;102242.38;;;18.55;37.51
62710;BME280;48770;51.624;5.886;2024-03-07T10:03:17;102241.84;;;18.53;36.51
62710;BME280;48770;51.624;5.886;2024-03-07T10:05:45;102244.63;;;18.53;36.92
62710;BME280;48770;51.624;5.886;2024-03-07T10:08:11;102236.59;;;18.51;36.38
62710;BME280;48770;51.624;5.886;2024-03-07T10:10:37;102242.66;;;18.53;36.83
62710;BME280;48770;51.624;5.886;2024-03-07T10:13:03;102237.13;;;18.53;36.21
62710;BME280;48770;51.624;5.886;2024-03-07T10:15:32;102230.75;;;18.53;36.86
62710;BME280;48770;51.624;5.886;2024-03-07T10:17:58;102227.47;;;18.51;36.37
62710;BME280;48770;51.624;5.886;2024-03-07T10:20:23;102223.88;;;18.50;36.60
62710;BME280;48770;51.624;5.886;2024-03-07T10:22:49;102225.00;;;18.49;36.38
62710;BME280;48770;51.624;5.886;2024-03-07T10:25:17;102222.81;;;18.46;36.39
62710;BME280;48770;51.624;5.886;2024-03-07T10:27:46;102218.09;;;18.46;36.12
62710;BME280;48770;51.624;5.886;2024-03-07T10:30:13;102210.09;;;18.45;36.22
62710;BME280;48770;51.624;5.886;2024-03-07T10:32:45;102217.84;;;18.48;35.70
62710;BME280;48770;51.624;5.886;2024-03-07T10:35:11;102204.50;;;18.50;36.45
62710;BME280;48770;51.624;5.886;2024-03-07T10:37:40;102213.94;;;18.49;36.10
62710;BME280;48770;51.624;5.886;2024-03-07T10:40:06;102208.41;;;18.49;36.04
62710;BME280;48770;51.624;5.886;2024-03-07T10:42:45;102210.63;;;18.47;36.01
62710;BME280;48770;51.624;5.886;2024-03-07T10:45:12;102201.22;;;18.48;35.31
62710;BME280;48770;51.624;5.886;2024-03-07T10:47:42;102197.00;;;18.51;35.83
62710;BME280;48770;51.624;5.886;2024-03-07T10:50:10;102200.38;;;18.47;35.84
62710;BME280;48770;51.624;5.886;2024-03-07T10:52:49;102203.44;;;18.46;35.65
62710;BME280;48770;51.624;5.886;2024-03-07T10:55:25;102199.53;;;18.47;35.88
62710;BME280;48770;51.624;5.886;2024-03-07T10:58:02;102189.28;;;18.47;35.52
62710;BME280;48770;51.624;5.886;2024-03-07T11:00:31;102186.75;;;18.51;35.44
62710;BME280;48770;51.624;5.886;2024-03-07T11:03:11;102193.41;;;18.50;35.65
62710;BME280;48770;51.624;5.886;2024-03-07T11:05:36;102192.59;;;18.49;35.52
62710;BME280;48770;51.624;5.886;2024-03-07T11:08:03;102202.31;;;18.47;35.64
62710;BME280;48770;51.624;5.886;2024-03-07T11:10:36;102198.19;;;18.44;35.38
62710;BME280;48770;51.624;5.886;2024-03-07T11:13:02;102191.03;;;18.43;35.41
62710;BME280;48770;51.624;5.886;2024-03-07T11:15:28;102192.16;;;18.42;35.21
62710;BME280;48770;51.624;5.886;2024-03-07T11:17:54;102194.59;;;18.44;35.19
62710;BME280;48770;51.624;5.886;2024-03-07T11:20:23;102192.16;;;18.42;35.20
62710;BME280;48770;51.624;5.886;2024-03-07T11:22:49;102192.16;;;18.42;35.16
62710;BME280;48770;51.624;5.886;2024-03-07T11:25:18;102186.91;;;18.41;34.94
62710;BME280;48770;51.624;5.886;2024-03-07T11:27:55;102170.50;;;18.44;35.27
62710;BME280;48770;51.624;5.886;2024-03-07T11:30:21;102182.19;;;18.41;35.35
62710;BME280;48770;51.624;5.886;2024-03-07T11:32:47;102180.56;;;18.40;35.17
62710;BME280;48770;51.624;5.886;2024-03-07T11:35:15;102174.72;;;18.42;35.25
62710;BME280;48770;51.624;5.886;2024-03-07T11:37:45;102172.16;;;18.45;35.25
62710;BME280;48770;51.624;5.886;2024-03-07T11:42:49;102170.13;;;18.51;35.18
62710;BME280;48770;51.624;5.886;2024-03-07T11:45:15;102162.66;;;18.52;35.15
62710;BME280;48770;51.624;5.886;2024-03-07T11:47:53;102154.84;;;18.54;35.56
62710;BME280;48770;51.624;5.886;2024-03-07T11:50:26;102149.53;;;18.57;35.08
62710;BME280;48770;51.624;5.886;2024-03-07T11:52:55;102149.22;;;18.59;35.25
62710;BME280;48770;51.624;5.886;2024-03-07T11:55:22;102145.09;;;18.56;35.06
62710;BME280;48770;51.624;5.886;2024-03-07T11:57:48;102145.63;;;18.58;35.14
62710;BME280;48770;51.624;5.886;2024-03-07T12:00:14;102141.97;;;18.63;34.92
62710;BME280;48770;51.624;5.886;2024-03-07T12:02:41;102142.47;;;18.65;35.43
62710;BME280;48770;51.624;5.886;2024-03-07T12:05:08;102134.75;;;18.62;35.05
62710;BME280;48770;51.624;5.886;2024-03-07T12:07:34;102128.31;;;18.66;34.88
62710;BME280;48770;51.624;5.886;2024-03-07T12:10:01;102130.47;;;18.69;35.02
62710;BME280;48770;51.624;5.886;2024-03-07T12:12:29;102128.44;;;18.75;35.04
62710;BME280;48770;51.624;5.886;2024-03-07T12:14:55;102113.47;;;18.76;34.94
62710;BME280;48770;51.624;5.886;2024-03-07T12:17:22;102121.16;;;18.79;34.77
62710;BME280;48770;51.624;5.886;2024-03-07T12:19:48;102109.75;;;18.81;34.84
62710;BME280;48770;51.624;5.886;2024-03-07T12:22:19;102110.38;;;18.77;35.03
62710;BME280;48770;51.624;5.886;2024-03-07T12:25:00;102106.69;;;18.82;35.00
62710;BME280;48770;51.624;5.886;2024-03-07T12:27:30;102103.59;;;18.84;34.86
62710;BME280;48770;51.624;5.886;2024-03-07T12:29:57;102102.16;;;18.86;34.74
62710;BME280;48770;51.624;5.886;2024-03-07T12:32:22;102101.53;;;18.89;34.81
62710;BME280;48770;51.624;5.886;2024-03-07T12:34:47;102095.38;;;18.92;34.86
62710;BME280;48770;51.624;5.886;2024-03-07T12:37:13;102090.34;;;18.94;34.65
62710;BME280;48770;51.624;5.886;2024-03-07T12:39:42;102084.50;;;18.96;34.99
62710;BME280;48770;51.624;5.886;2024-03-07T12:42:15;102084.69;;;18.99;34.77
62710;BME280;48770;51.624;5.886;2024-03-07T12:44:42;102079.47;;;18.98;34.76
62710;BME280;48770;51.624;5.886;2024-03-07T12:47:11;102076.09;;;19.01;34.82
62710;BME280;48770;51.624;5.886;2024-03-07T12:49:36;102069.72;;;19.00;34.79
62710;BME280;48770;51.624;5.886;2024-03-07T12:52:02;102070.25;;;19.02;34.62